sensor_id;sensor_type;location;lat;lon;timestamp;pressure;altitude;pressure_sealevel;temperature
70819;BMP280;58439;51.046;13.692;2023-05-02T00:00:50;99832.38;;;13.91
70819;BMP280;58439;51.046;13.692;2023-05-02T00:03:17;99836.38;;;13.93
70819;BMP280;58439;51.046;13.692;2023-05-02T00:05:44;99833.34;;;13.96
70819;BMP280;58439;51.046;13.692;2023-05-02T00:08:12;99832.53;;;13.96
70819;BMP280;58439;51.046;13.692;2023-05-02T00:10:39;99830.53;;;13.91
70819;BMP280;58439;51.046;13.692;2023-05-02T00:13:06;99828.16;;;13.89
70819;BMP280;58439;51.046;13.692;2023-05-02T00:15:33;99832.16;;;13.92
70819;BMP280;58439;51.046;13.692;2023-05-02T00:18:00;99843.84;;;13.96
70819;BMP280;58439;51.046;13.692;2023-05-02T00:20:27;99839.81;;;13.94
70819;BMP280;58439;51.046;13.692;2023-05-02T00:22:55;99840.84;;;13.93
70819;BMP280;58439;51.046;13.692;2023-05-02T00:25:23;99840.84;;;13.93
70819;BMP280;58439;51.046;13.692;2023-05-02T00:27:50;99844.50;;;13.92
70819;BMP280;58439;51.046;13.692;2023-05-02T00:30:17;99849.53;;;13.93
70819;BMP280;58439;51.046;13.692;2023-05-02T00:32:45;99858.00;;;13.95
70819;BMP280;58439;51.046;13.692;2023-05-02T00:35:12;99848.16;;;13.91
70819;BMP280;58439;51.046;13.692;2023-05-02T00:37:40;99850.78;;;13.91
70819;BMP280;58439;51.046;13.692;2023-05-02T00:40:08;99848.16;;;13.91
70819;BMP280;58439;51.046;13.692;2023-05-02T00:42:35;99845.81;;;14.01
70819;BMP280;58439;51.046;13.692;2023-05-02T00:45:03;99854.50;;;14.01
70819;BMP280;58439;51.046;13.692;2023-05-02T00:47:33;99842.56;;;13.99
70819;BMP280;58439;51.046;13.692;2023-05-02T00:50:00;99859.81;;;13.95
70819;BMP280;58439;51.046;13.692;2023-05-02T00:52:29;99863.72;;;13.92
70819;BMP280;58439;51.046;13.692;2023-05-02T00:55:50;99862.06;;;13.91
70819;BMP280;58439;51.046;13.692;2023-05-02T01:10:58;99852.84;;;13.70
70819;BMP280;58439;51.046;13.692;2023-05-02T01:18:49;99846.16;;;13.68
70819;BMP280;58439;51.046;13.692;2023-05-02T01:33:16;99835.72;;;13.61
70819;BMP280;58439;51.046;13.692;2023-05-02T01:36:53;99835.59;;;13.56
70819;BMP280;58439;51.046;13.692;2023-05-02T01:58:22;99836.91;;;13.65
70819;BMP280;58439;51.046;13.692;2023-05-02T02:01:36;99839.16;;;13.62
70819;BMP280;58439;51.046;13.692;2023-05-02T02:05:02;99835.16;;;13.59
70819;BMP280;58439;51.046;13.692;2023-05-02T02:07:42;99838.81;;;13.58
70819;BMP280;58439;51.046;13.692;2023-05-02T02:10:36;99840.41;;;13.59
70819;BMP280;58439;51.046;13.692;2023-05-02T02:19:30;99847.84;;;13.62
70819;BMP280;58439;51.046;13.692;2023-05-02T02:22:52;99854.94;;;13.62
70819;BMP280;58439;51.046;13.692;2023-05-02T02:25:30;99857.56;;;13.62
70819;BMP280;58439;51.046;13.692;2023-05-02T02:28:00;99862.03;;;13.61
70819;BMP280;58439;51.046;13.692;2023-05-02T02:30:27;99869.31;;;13.59
70819;BMP280;58439;51.046;13.692;2023-05-02T02:32:54;99865.09;;;13.58
70819;BMP280;58439;51.046;13.692;2023-05-02T02:35:25;99866.91;;;13.57
70819;BMP280;58439;51.046;13.692;2023-05-02T02:38:22;99862.47;;;13.58
70819;BMP280;58439;51.046;13.692;2023-05-02T02:41:15;99871.38;;;13.57
70819;BMP280;58439;51.046;13.692;2023-05-02T02:44:06;99877.03;;;13.54
70819;BMP280;58439;51.046;13.692;2023-05-02T02:46:59;99889.59;;;13.52
70819;BMP280;58439;51.046;13.692;2023-05-02T02:49:48;99891.41;;;13.51
70819;BMP280;58439;51.046;13.692;2023-05-02T02:53:04;99898.72;;;13.49
70819;BMP280;58439;51.046;13.692;2023-05-02T02:58:52;99900.00;;;13.65
70819;BMP280;58439;51.046;13.692;2023-05-02T03:01:26;99906.47;;;13.63
70819;BMP280;58439;51.046;13.692;2023-05-02T03:03:55;99906.47;;;13.63
70819;BMP280;58439;51.046;13.692;2023-05-02T03:06:23;99911.16;;;13.60
70819;BMP280;58439;51.046;13.692;2023-05-02T03:08:51;99903.47;;;13.59
70819;BMP280;58439;51.046;13.692;2023-05-02T03:11:24;99911.19;;;13.54
70819;BMP280;58439;51.046;13.692;2023-05-02T03:13:53;99907.00;;;13.53
70819;BMP280;58439;51.046;13.692;2023-05-02T03:16:39;99916.31;;;13.49
70819;BMP280;58439;51.046;13.692;2023-05-02T03:19:12;99917.16;;;13.43
70819;BMP280;58439;51.046;13.692;2023-05-02T03:21:39;99920.81;;;13.42
70819;BMP280;58439;51.046;13.692;2023-05-02T03:24:17;99922.25;;;13.38
70819;BMP280;58439;51.046;13.692;2023-05-02T03:26:45;99928.38;;;13.31
70819;BMP280;58439;51.046;13.692;2023-05-02T03:29:17;99944.56;;;13.28
70819;BMP280;58439;51.046;13.692;2023-05-02T03:31:44;99930.44;;;13.23
70819;BMP280;58439;51.046;13.692;2023-05-02T03:34:11;99939.38;;;13.15
70819;BMP280;58439;51.046;13.692;2023-05-02T03:36:39;99945.50;;;13.09
70819;BMP280;58439;51.046;13.692;2023-05-02T03:39:06;99935.19;;;13.08
70819;BMP280;58439;51.046;13.692;2023-05-02T03:41:34;99948.13;;;13.09
70819;BMP280;58439;51.046;13.692;2023-05-02T03:44:06;99949.34;;;13.07
70819;BMP280;58439;51.046;13.692;2023-05-02T03:46:33;99952.78;;;13.00
70819;BMP280;58439;51.046;13.692;2023-05-02T03:49:04;99949.47;;;12.87
70819;BMP280;58439;51.046;13.692;2023-05-02T03:51:31;99943.81;;;12.83
70819;BMP280;58439;51.046;13.692;2023-05-02T03:54:01;99950.09;;;12.82
70819;BMP280;58439;51.046;13.692;2023-05-02T03:56:32;99964.50;;;12.73
70819;BMP280;58439;51.046;13.692;2023-05-02T03:59:39;99958.84;;;12.69
70819;BMP280;58439;51.046;13.692;2023-05-02T04:07:40;99979.88;;;12.56
70819;BMP280;58439;51.046;13.692;2023-05-02T04:11:12;99975.00;;;12.60
70819;BMP280;58439;51.046;13.692;2023-05-02T04:13:41;99981.84;;;12.61
70819;BMP280;58439;51.046;13.692;2023-05-02T04:16:08;99983.91;;;12.65
70819;BMP280;58439;51.046;13.692;2023-05-02T04:18:37;99991.78;;;12.65
70819;BMP280;58439;51.046;13.692;2023-05-02T04:21:07;99998.38;;;12.68
70819;BMP280;58439;51.046;13.692;2023-05-02T04:23:37;100004.03;;;12.78
70819;BMP280;58439;51.046;13.692;2023-05-02T04:26:05;100019.97;;;12.77
70819;BMP280;58439;51.046;13.692;2023-05-02T04:28:48;100010.47;;;12.76
70819;BMP280;58439;51.046;13.692;2023-05-02T04:31:16;100013.50;;;12.86
70819;BMP280;58439;51.046;13.692;2023-05-02T04:33:44;100021.53;;;12.91
70819;BMP280;58439;51.046;13.692;2023-05-02T04:36:12;100036.69;;;12.89
70819;BMP280;58439;51.046;13.692;2023-05-02T04:38:42;100040.13;;;12.89
70819;BMP280;58439;51.046;13.692;2023-05-02T04:41:11;100043.50;;;12.96
70819;BMP280;58439;51.046;13.692;2023-05-02T04:43:43;100047.97;;;12.96
70819;BMP280;58439;51.046;13.692;2023-05-02T04:46:12;100055.66;;;12.97
70819;BMP280;58439;51.046;13.692;2023-05-02T04:48:40;100056.22;;;13.06
70819;BMP280;58439;51.046;13.692;2023-05-02T04:51:09;100059.66;;;13.07
70819;BMP280;58439;51.046;13.692;2023-05-02T04:53:37;100062.03;;;13.08
70819;BMP280;58439;51.046;13.692;2023-05-02T04:56:04;100061.63;;;13.11
70819;BMP280;58439;51.046;13.692;2023-05-02T04:58:34;100065.25;;;13.17
70819;BMP280;58439;51.046;13.692;2023-05-02T05:01:06;100075.13;;;13.21
70819;BMP280;58439;51.046;13.692;2023-05-02T05:03:33;100068.84;;;13.22
70819;BMP280;58439;51.046;13.692;2023-05-02T05:06:00;100080.56;;;13.26
70819;BMP280;58439;51.046;13.692;2023-05-02T05:08:29;100085.16;;;13.38
70819;BMP280;58439;51.046;13.692;2023-05-02T05:10:56;100085.53;;;13.41
70819;BMP280;58439;51.046;13.692;2023-05-02T05:13:24;100086.38;;;13.35
70819;BMP280;58439;51.046;13.692;2023-05-02T05:15:52;100095.06;;;13.36
70819;BMP280;58439;51.046;13.692;2023-05-02T05:18:22;100098.47;;;13.36
70819;BMP280;58439;51.046;13.692;2023-05-02T05:20:49;100103.16;;;13.34
70819;BMP280;58439;51.046;13.692;2023-05-02T05:23:17;100107.94;;;13.44
70819;BMP280;58439;51.046;13.692;2023-05-02T05:25:44;100110.41;;;13.45
70819;BMP280;58439;51.046;13.692;2023-05-02T05:28:13;100116.44;;;13.52
70819;BMP280;58439;51.046;13.692;2023-05-02T05:31:07;100116.81;;;13.56
70819;BMP280;58439;51.046;13.692;2023-05-02T05:33:35;100115.34;;;13.60
70819;BMP280;58439;51.046;13.692;2023-05-02T05:36:11;100121.19;;;13.62
70819;BMP280;58439;51.046;13.692;2023-05-02T05:38:54;100129.84;;;13.69
70819;BMP280;58439;51.046;13.692;2023-05-02T05:41:21;100122.09;;;13.81
70819;BMP280;58439;51.046;13.692;2023-05-02T05:43:57;100128.38;;;13.80
70819;BMP280;58439;51.046;13.692;2023-05-02T05:46:26;100134.19;;;13.88
70819;BMP280;58439;51.046;13.692;2023-05-02T05:48:54;100130.75;;;13.88
70819;BMP280;58439;51.046;13.692;2023-05-02T05:51:21;100139.59;;;13.94
70819;BMP280;58439;51.046;13.692;2023-05-02T05:53:51;100129.13;;;13.87
70819;BMP280;58439;51.046;13.692;2023-05-02T05:56:19;100135.41;;;13.86
70819;BMP280;58439;51.046;13.692;2023-05-02T05:58:54;100151.16;;;13.93
70819;BMP280;58439;51.046;13.692;2023-05-02T06:01:21;100162.19;;;14.08
70819;BMP280;58439;51.046;13.692;2023-05-02T06:03:48;100161.50;;;14.19
70819;BMP280;58439;51.046;13.692;2023-05-02T06:06:17;100176.38;;;14.32
70819;BMP280;58439;51.046;13.692;2023-05-02T06:08:44;100168.94;;;14.47
70819;BMP280;58439;51.046;13.692;2023-05-02T06:11:28;100165.38;;;14.60
70819;BMP280;58439;51.046;13.692;2023-05-02T06:13:56;100175.50;;;14.63
70819;BMP280;58439;51.046;13.692;2023-05-02T06:16:23;100182.88;;;14.72
70819;BMP280;58439;51.046;13.692;2023-05-02T06:18:53;100185.81;;;14.83
70819;BMP280;58439;51.046;13.692;2023-05-02T06:21:21;100184.50;;;14.92
70819;BMP280;58439;51.046;13.692;2023-05-02T06:23:56;100191.75;;;14.96
70819;BMP280;58439;51.046;13.692;2023-05-02T06:26:23;100205.38;;;14.93
70819;BMP280;58439;51.046;13.692;2023-05-02T06:28:50;100196.78;;;14.98
70819;BMP280;58439;51.046;13.692;2023-05-02T06:31:17;100206.69;;;15.02
70819;BMP280;58439;51.046;13.692;2023-05-02T06:33:45;100207.41;;;15.10
70819;BMP280;58439;51.046;13.692;2023-05-02T06:36:13;100214.88;;;15.13
70819;BMP280;58439;51.046;13.692;2023-05-02T06:38:40;100217.94;;;15.10
70819;BMP280;58439;51.046;13.692;2023-05-02T06:41:12;100233.97;;;15.08
70819;BMP280;58439;51.046;13.692;2023-05-02T06:43:43;100229.00;;;15.00
70819;BMP280;58439;51.046;13.692;2023-05-02T06:46:11;100232.28;;;14.95
70819;BMP280;58439;51.046;13.692;2023-05-02T06:48:38;100236.69;;;15.01
70819;BMP280;58439;51.046;13.692;2023-05-02T06:51:05;100242.50;;;15.10
70819;BMP280;58439;51.046;13.692;2023-05-02T06:53:32;100249.53;;;15.16
70819;BMP280;58439;51.046;13.692;2023-05-02T06:56:00;100250.22;;;15.23
70819;BMP280;58439;51.046;13.692;2023-05-02T06:58:29;100249.44;;;15.23
70819;BMP280;58439;51.046;13.692;2023-05-02T07:00:56;100260.41;;;15.20
70819;BMP280;58439;51.046;13.692;2023-05-02T07:03:24;100263.19;;;15.25
70819;BMP280;58439;51.046;13.692;2023-05-02T07:05:51;100257.78;;;15.38
70819;BMP280;58439;51.046;13.692;2023-05-02T07:08:18;100270.00;;;15.51
70819;BMP280;58439;51.046;13.692;2023-05-02T07:10:47;100265.66;;;15.56
70819;BMP280;58439;51.046;13.692;2023-05-02T07:13:14;100271.00;;;15.68
70819;BMP280;58439;51.046;13.692;2023-05-02T07:15:42;100279.63;;;15.75
70819;BMP280;58439;51.046;13.692;2023-05-02T07:18:09;100279.72;;;15.69
70819;BMP280;58439;51.046;13.692;2023-05-02T07:20:36;100283.38;;;15.68
70819;BMP280;58439;51.046;13.692;2023-05-02T07:23:04;100285.28;;;15.79
70819;BMP280;58439;51.046;13.692;2023-05-02T07:25:31;100295.47;;;15.75
70819;BMP280;58439;51.046;13.692;2023-05-02T07:27:59;100293.44;;;15.59
70819;BMP280;58439;51.046;13.692;2023-05-02T07:30:26;100303.84;;;15.35
70819;BMP280;58439;51.046;13.692;2023-05-02T07:32:53;100305.44;;;15.18
70819;BMP280;58439;51.046;13.692;2023-05-02T07:35:20;100312.00;;;15.09
70819;BMP280;58439;51.046;13.692;2023-05-02T07:37:48;100312.00;;;15.09
70819;BMP280;58439;51.046;13.692;2023-05-02T07:40:15;100323.63;;;15.01
70819;BMP280;58439;51.046;13.692;2023-05-02T07:42:42;100328.97;;;15.13
70819;BMP280;58439;51.046;13.692;2023-05-02T07:45:10;100329.88;;;15.25
70819;BMP280;58439;51.046;13.692;2023-05-02T07:47:37;100334.56;;;15.23
70819;BMP280;58439;51.046;13.692;2023-05-02T07:50:05;100335.41;;;15.17
70819;BMP280;58439;51.046;13.692;2023-05-02T07:52:32;100344.53;;;15.21
70819;BMP280;58439;51.046;13.692;2023-05-02T07:55:00;100341.84;;;15.46
70819;BMP280;58439;51.046;13.692;2023-05-02T07:57:27;100348.94;;;15.64
70819;BMP280;58439;51.046;13.692;2023-05-02T07:59:54;100345.97;;;15.42
70819;BMP280;58439;51.046;13.692;2023-05-02T08:02:23;100364.25;;;15.37
70819;BMP280;58439;51.046;13.692;2023-05-02T08:04:52;100360.88;;;15.30
70819;BMP280;58439;51.046;13.692;2023-05-02T08:07:20;100366.44;;;15.22
70819;BMP280;58439;51.046;13.692;2023-05-02T08:09:47;100368.19;;;15.28
70819;BMP280;58439;51.046;13.692;2023-05-02T08:12:14;100360.31;;;15.46
70819;BMP280;58439;51.046;13.692;2023-05-02T08:14:41;100363.38;;;15.98
70819;BMP280;58439;51.046;13.692;2023-05-02T08:17:09;100368.00;;;16.33
70819;BMP280;58439;51.046;13.692;2023-05-02T08:19:36;100372.97;;;16.41
70819;BMP280;58439;51.046;13.692;2023-05-02T08:22:03;100374.16;;;16.57
70819;BMP280;58439;51.046;13.692;2023-05-02T08:24:30;100375.81;;;16.93
70819;BMP280;58439;51.046;13.692;2023-05-02T08:26:57;100379.97;;;17.35
70819;BMP280;58439;51.046;13.692;2023-05-02T08:29:24;100385.81;;;17.49
70819;BMP280;58439;51.046;13.692;2023-05-02T08:31:51;100385.47;;;17.45
70819;BMP280;58439;51.046;13.692;2023-05-02T08:34:19;100384.78;;;17.38
70819;BMP280;58439;51.046;13.692;2023-05-02T08:36:46;100387.31;;;17.33
70819;BMP280;58439;51.046;13.692;2023-05-02T08:39:13;100396.66;;;17.24
70819;BMP280;58439;51.046;13.692;2023-05-02T08:41:40;100396.31;;;17.21
70819;BMP280;58439;51.046;13.692;2023-05-02T08:44:07;100396.19;;;17.15
70819;BMP280;58439;51.046;13.692;2023-05-02T08:46:40;100404.56;;;17.01
70819;BMP280;58439;51.046;13.692;2023-05-02T08:49:09;100402.63;;;17.08
70819;BMP280;58439;51.046;13.692;2023-05-02T08:51:38;100410.06;;;17.23
70819;BMP280;58439;51.046;13.692;2023-05-02T08:54:08;100403.63;;;17.54
70819;BMP280;58439;51.046;13.692;2023-05-02T08:56:37;100416.38;;;17.57
70819;BMP280;58439;51.046;13.692;2023-05-02T08:59:05;100411.03;;;17.40
70819;BMP280;58439;51.046;13.692;2023-05-02T09:01:34;100418.00;;;17.34
70819;BMP280;58439;51.046;13.692;2023-05-02T09:04:03;100424.91;;;17.47
70819;BMP280;58439;51.046;13.692;2023-05-02T09:06:31;100422.38;;;17.52
70819;BMP280;58439;51.046;13.692;2023-05-02T09:08:59;100423.19;;;17.53
70819;BMP280;58439;51.046;13.692;2023-05-02T09:11:27;100424.41;;;17.62
70819;BMP280;58439;51.046;13.692;2023-05-02T09:13:54;100423.28;;;17.69
70819;BMP280;58439;51.046;13.692;2023-05-02T09:16:25;100431.69;;;17.66
70819;BMP280;58439;51.046;13.692;2023-05-02T09:18:55;100432.91;;;17.75
70819;BMP280;58439;51.046;13.692;2023-05-02T09:21:38;100436.69;;;17.91
70819;BMP280;58439;51.046;13.692;2023-05-02T09:24:20;100439.34;;;17.91
70819;BMP280;58439;51.046;13.692;2023-05-02T09:27:02;100449.59;;;17.76
70819;BMP280;58439;51.046;13.692;2023-05-02T09:29:31;100449.50;;;17.94
70819;BMP280;58439;51.046;13.692;2023-05-02T09:32:05;100451.06;;;18.35
70819;BMP280;58439;51.046;13.692;2023-05-02T09:34:32;100451.84;;;18.36
70819;BMP280;58439;51.046;13.692;2023-05-02T09:36:59;100452.09;;;18.34
70819;BMP280;58439;51.046;13.692;2023-05-02T09:39:28;100451.72;;;18.14
70819;BMP280;58439;51.046;13.692;2023-05-02T09:41:57;100458.31;;;18.28
70819;BMP280;58439;51.046;13.692;2023-05-02T09:44:36;100449.00;;;18.71
70819;BMP280;58439;51.046;13.692;2023-05-02T09:47:03;100454.69;;;19.47
70819;BMP280;58439;51.046;13.692;2023-05-02T09:49:45;100450.38;;;19.84
70819;BMP280;58439;51.046;13.692;2023-05-02T09:52:15;100455.38;;;19.81
70819;BMP280;58439;51.046;13.692;2023-05-02T09:54:43;100467.22;;;19.35
70819;BMP280;58439;51.046;13.692;2023-05-02T09:57:12;100463.06;;;18.72
70819;BMP280;58439;51.046;13.692;2023-05-02T09:59:40;100464.31;;;18.24
70819;BMP280;58439;51.046;13.692;2023-05-02T10:02:08;100457.34;;;18.18
70819;BMP280;58439;51.046;13.692;2023-05-02T10:04:38;100470.47;;;18.13
70819;BMP280;58439;51.046;13.692;2023-05-02T10:07:08;100468.88;;;18.00
70819;BMP280;58439;51.046;13.692;2023-05-02T10:09:42;100470.72;;;18.11
70819;BMP280;58439;51.046;13.692;2023-05-02T10:12:14;100476.06;;;17.88
70819;BMP280;58439;51.046;13.692;2023-05-02T10:14:48;100475.34;;;17.92
70819;BMP280;58439;51.046;13.692;2023-05-02T10:17:26;100486.00;;;18.21
70819;BMP280;58439;51.046;13.692;2023-05-02T10:20:03;100477.94;;;18.27
70819;BMP280;58439;51.046;13.692;2023-05-02T10:22:33;100479.81;;;18.44
70819;BMP280;58439;51.046;13.692;2023-05-02T10:25:02;100476.97;;;18.33
70819;BMP280;58439;51.046;13.692;2023-05-02T10:27:31;100477.03;;;18.50
70819;BMP280;58439;51.046;13.692;2023-05-02T10:29:59;100475.91;;;18.46
70819;BMP280;58439;51.046;13.692;2023-05-02T10:32:28;100489.47;;;18.50
70819;BMP280;58439;51.046;13.692;2023-05-02T10:35:03;100480.72;;;18.49
70819;BMP280;58439;51.046;13.692;2023-05-02T10:37:35;100481.53;;;18.50
70819;BMP280;58439;51.046;13.692;2023-05-02T10:40:03;100493.66;;;18.62
70819;BMP280;58439;51.046;13.692;2023-05-02T10:42:39;100494.03;;;18.99
70819;BMP280;58439;51.046;13.692;2023-05-02T10:45:29;100485.69;;;19.24
70819;BMP280;58439;51.046;13.692;2023-05-02T10:50:56;100497.81;;;18.70
70819;BMP280;58439;51.046;13.692;2023-05-02T10:53:34;100495.75;;;18.32
70819;BMP280;58439;51.046;13.692;2023-05-02T10:56:20;100496.34;;;17.82
70819;BMP280;58439;51.046;13.692;2023-05-02T10:58:50;100494.59;;;17.53
70819;BMP280;58439;51.046;13.692;2023-05-02T11:04:06;100492.53;;;17.31
70819;BMP280;58439;51.046;13.692;2023-05-02T11:11:50;100492.78;;;17.53
70819;BMP280;58439;51.046;13.692;2023-05-02T11:19:26;100496.53;;;19.06
70819;BMP280;58439;51.046;13.692;2023-05-02T11:24:49;100492.44;;;22.30
70819;BMP280;58439;51.046;13.692;2023-05-02T11:29:58;100503.59;;;23.18
70819;BMP280;58439;51.046;13.692;2023-05-02T11:35:17;100504.69;;;23.12
70819;BMP280;58439;51.046;13.692;2023-05-02T11:37:53;100504.75;;;22.51
70819;BMP280;58439;51.046;13.692;2023-05-02T11:40:21;100506.47;;;21.85
70819;BMP280;58439;51.046;13.692;2023-05-02T11:42:50;100508.16;;;21.49
70819;BMP280;58439;51.046;13.692;2023-05-02T11:45:17;100500.88;;;20.92
70819;BMP280;58439;51.046;13.692;2023-05-02T11:47:46;100508.09;;;20.65
70819;BMP280;58439;51.046;13.692;2023-05-02T11:50:15;100514.88;;;21.14
70819;BMP280;58439;51.046;13.692;2023-05-02T11:52:44;100514.84;;;21.09
70819;BMP280;58439;51.046;13.692;2023-05-02T11:55:13;100523.16;;;21.75
70819;BMP280;58439;51.046;13.692;2023-05-02T11:57:40;100515.94;;;22.69
70819;BMP280;58439;51.046;13.692;2023-05-02T12:00:09;100511.41;;;23.74
70819;BMP280;58439;51.046;13.692;2023-05-02T12:02:44;100514.63;;;23.76
70819;BMP280;58439;51.046;13.692;2023-05-02T12:05:14;100524.97;;;24.32
70819;BMP280;58439;51.046;13.692;2023-05-02T12:07:44;100519.84;;;24.36
70819;BMP280;58439;51.046;13.692;2023-05-02T12:10:12;100515.09;;;23.09
70819;BMP280;58439;51.046;13.692;2023-05-02T12:12:42;100511.63;;;22.42
70819;BMP280;58439;51.046;13.692;2023-05-02T12:15:12;100521.72;;;22.05
70819;BMP280;58439;51.046;13.692;2023-05-02T12:17:42;100519.47;;;20.92
70819;BMP280;58439;51.046;13.692;2023-05-02T12:20:11;100522.06;;;19.84
70819;BMP280;58439;51.046;13.692;2023-05-02T12:22:38;100515.44;;;18.93
70819;BMP280;58439;51.046;13.692;2023-05-02T12:25:06;100518.28;;;18.75
70819;BMP280;58439;51.046;13.692;2023-05-02T12:27:34;100522.88;;;18.79
70819;BMP280;58439;51.046;13.692;2023-05-02T12:30:02;100520.47;;;19.45
70819;BMP280;58439;51.046;13.692;2023-05-02T12:32:32;100516.75;;;21.61
70819;BMP280;58439;51.046;13.692;2023-05-02T12:35:02;100522.00;;;23.35
70819;BMP280;58439;51.046;13.692;2023-05-02T12:37:38;100516.38;;;24.40
70819;BMP280;58439;51.046;13.692;2023-05-02T12:40:14;100518.72;;;24.03
70819;BMP280;58439;51.046;13.692;2023-05-02T12:43:08;100509.19;;;23.22
70819;BMP280;58439;51.046;13.692;2023-05-02T12:45:36;100518.88;;;22.82
70819;BMP280;58439;51.046;13.692;2023-05-02T12:48:26;100518.56;;;22.18
70819;BMP280;58439;51.046;13.692;2023-05-02T12:51:01;100516.44;;;22.25
70819;BMP280;58439;51.046;13.692;2023-05-02T12:53:42;100520.50;;;21.23
70819;BMP280;58439;51.046;13.692;2023-05-02T12:56:17;100518.69;;;20.60
70819;BMP280;58439;51.046;13.692;2023-05-02T12:58:50;100519.34;;;20.01
70819;BMP280;58439;51.046;13.692;2023-05-02T13:01:31;100521.28;;;19.84
70819;BMP280;58439;51.046;13.692;2023-05-02T13:04:21;100516.84;;;21.29
70819;BMP280;58439;51.046;13.692;2023-05-02T13:13:05;100531.69;;;24.93
70819;BMP280;58439;51.046;13.692;2023-05-02T13:16:09;100526.72;;;25.52
70819;BMP280;58439;51.046;13.692;2023-05-02T13:19:08;100526.84;;;24.66
70819;BMP280;58439;51.046;13.692;2023-05-02T13:21:46;100524.81;;;23.69
70819;BMP280;58439;51.046;13.692;2023-05-02T13:25:14;100529.81;;;22.91
70819;BMP280;58439;51.046;13.692;2023-05-02T13:27:58;100525.00;;;22.47
70819;BMP280;58439;51.046;13.692;2023-05-02T13:31:24;100526.81;;;22.22
70819;BMP280;58439;51.046;13.692;2023-05-02T13:34:23;100531.28;;;22.11
70819;BMP280;58439;51.046;13.692;2023-05-02T13:38:35;100537.22;;;21.13
70819;BMP280;58439;51.046;13.692;2023-05-02T13:41:52;100534.13;;;20.63
70819;BMP280;58439;51.046;13.692;2023-05-02T13:44:51;100539.13;;;20.10
70819;BMP280;58439;51.046;13.692;2023-05-02T13:47:35;100533.31;;;19.53
70819;BMP280;58439;51.046;13.692;2023-05-02T13:50:06;100533.84;;;19.16
70819;BMP280;58439;51.046;13.692;2023-05-02T13:52:38;100530.44;;;19.04
70819;BMP280;58439;51.046;13.692;2023-05-02T13:55:06;100531.06;;;18.78
70819;BMP280;58439;51.046;13.692;2023-05-02T13:57:34;100539.00;;;18.49
70819;BMP280;58439;51.046;13.692;2023-05-02T14:00:01;100533.56;;;18.27
70819;BMP280;58439;51.046;13.692;2023-05-02T14:02:31;100536.25;;;18.04
70819;BMP280;58439;51.046;13.692;2023-05-02T14:04:58;100535.88;;;18.12
70819;BMP280;58439;51.046;13.692;2023-05-02T14:07:26;100537.03;;;18.45
70819;BMP280;58439;51.046;13.692;2023-05-02T14:09:53;100538.81;;;19.13
70819;BMP280;58439;51.046;13.692;2023-05-02T14:12:20;100545.56;;;21.32
70819;BMP280;58439;51.046;13.692;2023-05-02T14:14:50;100545.94;;;23.56
70819;BMP280;58439;51.046;13.692;2023-05-02T14:17:17;100542.63;;;24.96
70819;BMP280;58439;51.046;13.692;2023-05-02T14:20:49;100537.75;;;26.40
70819;BMP280;58439;51.046;13.692;2023-05-02T14:23:20;100534.94;;;26.17
70819;BMP280;58439;51.046;13.692;2023-05-02T14:25:56;100532.41;;;25.88
70819;BMP280;58439;51.046;13.692;2023-05-02T14:28:31;100537.38;;;26.33
70819;BMP280;58439;51.046;13.692;2023-05-02T14:38:21;100537.38;;;20.70
70819;BMP280;58439;51.046;13.692;2023-05-02T14:40:56;100542.94;;;19.76
70819;BMP280;58439;51.046;13.692;2023-05-02T14:43:26;100541.31;;;19.03
70819;BMP280;58439;51.046;13.692;2023-05-02T14:46:05;100550.28;;;18.56
70819;BMP280;58439;51.046;13.692;2023-05-02T14:48:32;100572.94;;;18.00
70819;BMP280;58439;51.046;13.692;2023-05-02T14:51:03;100562.28;;;17.60
70819;BMP280;58439;51.046;13.692;2023-05-02T14:53:31;100578.66;;;16.97
70819;BMP280;58439;51.046;13.692;2023-05-02T14:56:14;100577.31;;;16.58
70819;BMP280;58439;51.046;13.692;2023-05-02T14:58:49;100577.81;;;16.30
70819;BMP280;58439;51.046;13.692;2023-05-02T15:01:21;100594.75;;;16.22
70819;BMP280;58439;51.046;13.692;2023-05-02T15:03:48;100600.66;;;16.00
70819;BMP280;58439;51.046;13.692;2023-05-02T15:06:32;100609.53;;;15.80
70819;BMP280;58439;51.046;13.692;2023-05-02T15:09:01;100603.00;;;15.58
70819;BMP280;58439;51.046;13.692;2023-05-02T15:11:32;100614.41;;;15.45
70819;BMP280;58439;51.046;13.692;2023-05-02T15:13:59;100615.41;;;15.51
70819;BMP280;58439;51.046;13.692;2023-05-02T15:16:27;100610.13;;;15.51
70819;BMP280;58439;51.046;13.692;2023-05-02T15:18:55;100614.06;;;15.42
70819;BMP280;58439;51.046;13.692;2023-05-02T15:21:22;100610.56;;;15.48
70819;BMP280;58439;51.046;13.692;2023-05-02T15:23:50;100612.91;;;15.62
70819;BMP280;58439;51.046;13.692;2023-05-02T15:26:17;100623.81;;;15.73
70819;BMP280;58439;51.046;13.692;2023-05-02T15:28:45;100625.03;;;15.70
70819;BMP280;58439;51.046;13.692;2023-05-02T15:31:12;100635.22;;;15.67
70819;BMP280;58439;51.046;13.692;2023-05-02T15:33:39;100631.16;;;15.64
70819;BMP280;58439;51.046;13.692;2023-05-02T15:36:07;100641.84;;;15.76
70819;BMP280;58439;51.046;13.692;2023-05-02T15:38:34;100637.56;;;15.81
70819;BMP280;58439;51.046;13.692;2023-05-02T15:41:05;100635.72;;;15.82
70819;BMP280;58439;51.046;13.692;2023-05-02T15:43:34;100644.69;;;15.74
70819;BMP280;58439;51.046;13.692;2023-05-02T15:46:01;100642.50;;;15.64
70819;BMP280;58439;51.046;13.692;2023-05-02T15:48:30;100654.72;;;15.65
70819;BMP280;58439;51.046;13.692;2023-05-02T15:50:59;100659.78;;;15.60
70819;BMP280;58439;51.046;13.692;2023-05-02T15:53:28;100658.16;;;15.66
70819;BMP280;58439;51.046;13.692;2023-05-02T15:55:55;100658.81;;;15.55
70819;BMP280;58439;51.046;13.692;2023-05-02T15:58:33;100658.53;;;15.31
70819;BMP280;58439;51.046;13.692;2023-05-02T16:01:01;100661.63;;;15.22